Aruba, Aruba

9:47 PM AST op 23 juli 2014 (GMT -0400)
Oranjestad-Reina Beatrix International (TNCA) Hoogte 59 ft | 12.50 °N, 70.02 °W | Change Station

Current weather conditions updated 47 minutes ago

Partly Cloudy
Gedeeltelijk bewolkt
82 °F
Voelt als 91 °F
N
21
Wind Variabel Wind van ONO

Er wordt verwacht dat het morgen veel koeler is dan vandaag. Overwegend helder..

Vandaag
Hoog -- | Laag -- °F
--% Kans op neerslag
Gisteren
Hoog -- | Laag -- °F
Precip. -- inches
6:24 AM 7:08 PM
Afnemende halvemaan, 7% visible
Druk 29.89 inches
Zicht 6.2 mijlen
Wolken Gering 1800 ft
Warmteindex 91 °F
Dauwpunt 77 °F
Vochtigheid 84%
Neerslag 0.00 inches
Dikte sneeuw Niet beschikbaar.
UV 0 van de 12
Pollen Niet beschikbaar.
Luchtkwaliteit Niet beschikbaar.
Flu Activity Niet beschikbaar.
METAR TNCA 240100Z 07018KT 9999 FEW018 28/25 Q1012 A2991 NOSIG

More Conditions Fewer Conditions

Druk 29.89 inches
Zicht 6.2 mijlen
Wolken Gering 1800 ft
Warmteindex 91 °F
Dauwpunt 77 °F
Vochtigheid 84%
Neerslag 0.00 inches
Dikte sneeuw Niet beschikbaar.
UV 0 van de 12
Pollen Niet beschikbaar.
Luchtkwaliteit Niet beschikbaar.
Flu Activity Niet beschikbaar.
METAR TNCA 240100Z 07018KT 9999 FEW018 28/25 Q1012 A2991 NOSIG

More Conditions Fewer Conditions

10-Day Weather Forecast

Almanac

Astronomie

Jul. 23, 2014 Opkomst Ondergang
Werkelijke tijd 6:24 AM AST 7:08 PM AST
Burgerlijke schemering 6:01 AM AST 7:31 PM AST
Nautische schemering 5:34 AM AST 7:58 PM AST
Astronomische schemering 5:07 AM AST 8:25 PM AST
Maan 3:37 AM AST (7/23) 4:37 PM AST (7/23)
Golflengte van het zichtbare licht 13h 29m
Daglengte
12h 44m
Tomorrow will be 0m 26s shorter.
Afnemende halvemaan, 7% of the Moon is Illuminated
Vandaag
Afnemende halvemaan
jul 26
Nieuw
aug 3
Eerste kwartier
aug 10
Volle maan
aug 17
Laatste kwartier

Extremen vandaag

Country Highs Country Lows

Community

WunderPhotos

Upload Photos

1,736,843 foto’s ge-upload!

Nearby

Luchtkwaliteit

Not available.

Dikte sneeuw

Not available.

Aardbevingen

Stad Distance Mag. Time & Date
No recent earthquake activity has been reported nearby.
Minimum magnitude displayed is 2.5.

Watertemperatuur langs de kust

Plaats Temperatuur
Geen meldingen van stations

Nabije weerstations

Geen persoonlijke weerstations in dit gebied.